createdAt,value
2022-12-15T00:02:35.535Z,18.43
2022-12-15T00:05:21.383Z,17.47
2022-12-15T00:08:06.768Z,17.50
2022-12-15T00:10:52.054Z,18.70
2022-12-15T00:13:37.512Z,16.97
2022-12-15T00:16:23.349Z,18.63
2022-12-15T00:19:08.586Z,18.63
2022-12-15T00:21:53.807Z,17.47
2022-12-15T00:24:39.395Z,17.10
2022-12-15T00:27:24.939Z,17.27
2022-12-15T00:30:10.372Z,17.23
2022-12-15T00:32:55.939Z,16.50
2022-12-15T00:35:41.260Z,17.53
2022-12-15T00:38:28.317Z,16.63
2022-12-15T00:41:01.074Z,17.53
2022-12-15T00:43:32.396Z,17.23
2022-12-15T00:46:18.296Z,16.93
2022-12-15T00:48:45.548Z,16.93
2022-12-15T00:51:13.593Z,17.43
2022-12-15T00:53:59.633Z,17.10
2022-12-15T00:56:45.140Z,16.77
2022-12-15T00:59:32.203Z,16.50
2022-12-15T01:02:17.771Z,15.90
2022-12-15T01:05:03.181Z,17.23
2022-12-15T01:07:49.977Z,16.43
2022-12-15T01:10:36.187Z,17.57
2022-12-15T01:13:22.048Z,16.77
2022-12-15T01:16:07.626Z,16.70
2022-12-15T01:18:53.466Z,16.87
2022-12-15T01:21:24.337Z,17.27
2022-12-15T01:23:51.954Z,16.57
2022-12-15T01:26:18.853Z,16.20
2022-12-15T01:28:45.469Z,16.30
2022-12-15T01:31:12.524Z,18.07
2022-12-15T01:33:39.977Z,17.00
2022-12-15T01:36:07.097Z,17.77
2022-12-15T01:38:33.709Z,16.30
2022-12-15T01:41:04.701Z,15.50
2022-12-15T01:43:34.949Z,15.07
2022-12-15T01:46:06.387Z,15.40
2022-12-15T01:48:46.805Z,14.60
2022-12-15T01:51:16.093Z,15.63
2022-12-15T01:54:05.821Z,15.97
2022-12-15T01:56:37.907Z,16.43
2022-12-15T01:59:08.063Z,16.80
2022-12-15T02:01:35.086Z,17.77
2022-12-15T02:04:02.615Z,16.07
2022-12-15T02:06:29.942Z,17.37
2022-12-15T02:08:59.827Z,18.00
2022-12-15T02:11:57.538Z,16.57
2022-12-15T02:14:47.519Z,17.13
2022-12-15T02:17:38.177Z,16.97
2022-12-15T02:20:19.587Z,17.77
2022-12-15T02:22:46.206Z,17.80
2022-12-15T02:25:34.603Z,16.37
2022-12-15T02:28:06.396Z,18.00
2022-12-15T02:31:11.812Z,16.87
2022-12-15T02:34:09.771Z,16.80
2022-12-15T02:36:43.858Z,17.40
2022-12-15T02:39:13.001Z,17.50
2022-12-15T02:41:42.773Z,18.23
2022-12-15T02:44:21.346Z,16.60
2022-12-15T02:46:59.291Z,16.63
2022-12-15T02:49:49.868Z,16.47
2022-12-15T02:52:52.775Z,16.37
2022-12-15T02:55:37.802Z,17.40
2022-12-15T02:58:25.003Z,16.27
2022-12-15T03:00:59.264Z,16.33
2022-12-15T03:03:28.282Z,16.27
2022-12-15T03:05:55.470Z,16.50
2022-12-15T03:08:22.442Z,17.17
2022-12-15T03:10:52.244Z,16.73
2022-12-15T03:13:18.950Z,15.50
2022-12-15T03:15:45.612Z,17.00
2022-12-15T03:18:12.436Z,16.63
2022-12-15T03:20:39.107Z,16.07
2022-12-15T03:23:05.841Z,17.07
2022-12-15T03:25:32.556Z,16.23
2022-12-15T03:27:59.270Z,16.07
2022-12-15T03:30:26.174Z,16.27
2022-12-15T03:32:52.805Z,16.43
2022-12-15T03:35:19.515Z,15.53
2022-12-15T03:37:46.437Z,15.43
2022-12-15T03:40:16.489Z,15.17
2022-12-15T03:42:48.439Z,16.33
2022-12-15T03:45:19.710Z,16.57
2022-12-15T03:47:47.380Z,15.60
2022-12-15T03:50:16.459Z,14.80
2022-12-15T03:52:43.557Z,14.93
2022-12-15T03:55:11.629Z,15.03
2022-12-15T03:57:38.278Z,15.00
2022-12-15T04:00:07.058Z,14.97
2022-12-15T04:02:33.867Z,13.97
2022-12-15T04:05:00.713Z,15.20
2022-12-15T04:07:27.375Z,15.40
2022-12-15T04:09:54.062Z,16.00
2022-12-15T04:12:20.806Z,14.67
2022-12-15T04:14:47.513Z,14.50
2022-12-15T04:17:16.448Z,15.63
2022-12-15T04:20:02.078Z,14.60
2022-12-15T04:22:28.740Z,14.93
2022-12-15T04:25:14.292Z,14.27
2022-12-15T04:28:01.722Z,14.97
2022-12-15T04:30:48.599Z,13.57
2022-12-15T04:33:34.396Z,15.10
2022-12-15T04:36:20.486Z,14.53
2022-12-15T04:39:05.979Z,15.47
2022-12-15T04:41:51.601Z,14.13
2022-12-15T04:44:37.530Z,15.53
2022-12-15T04:47:23.282Z,14.63
2022-12-15T04:50:08.438Z,14.40
2022-12-15T04:52:54.072Z,15.40
2022-12-15T04:55:39.662Z,15.47
2022-12-15T04:58:26.714Z,14.20
2022-12-15T05:01:12.416Z,13.03
2022-12-15T05:03:58.068Z,12.50
2022-12-15T05:06:43.264Z,14.67
2022-12-15T05:09:28.780Z,14.07
2022-12-15T05:12:14.170Z,13.80
2022-12-15T05:14:59.786Z,13.80
2022-12-15T05:17:45.414Z,14.93
2022-12-15T05:20:30.674Z,14.40
2022-12-15T05:23:16.677Z,14.47
2022-12-15T05:26:01.925Z,14.80
2022-12-15T05:28:47.796Z,14.53
2022-12-15T05:31:33.829Z,15.60
2022-12-15T05:34:05.089Z,16.20
2022-12-15T05:36:32.879Z,16.40
2022-12-15T05:38:59.609Z,16.60
2022-12-15T05:41:26.256Z,15.40
2022-12-15T05:43:52.954Z,14.20
2022-12-15T05:46:20.089Z,14.23
2022-12-15T05:48:47.132Z,14.67
2022-12-15T05:51:14.298Z,15.47
2022-12-15T05:53:41.835Z,14.03
2022-12-15T05:56:11.409Z,15.47
2022-12-15T05:58:44.788Z,14.97
2022-12-15T06:01:14.588Z,14.53
2022-12-15T06:03:42.158Z,15.13
2022-12-15T06:06:10.628Z,14.63
2022-12-15T06:08:39.369Z,13.27
2022-12-15T06:11:06.537Z,14.90
2022-12-15T06:13:37.015Z,14.60
2022-12-15T06:16:06.741Z,15.70
2022-12-15T06:18:36.730Z,14.67
2022-12-15T06:21:06.596Z,16.93
2022-12-15T06:23:34.971Z,17.77
2022-12-15T06:26:14.367Z,16.07
2022-12-15T06:28:41.616Z,15.13
2022-12-15T06:31:10.043Z,13.33
2022-12-15T06:33:37.097Z,13.90
2022-12-15T06:36:06.216Z,13.77
2022-12-15T06:38:33.934Z,15.90
2022-12-15T06:41:02.262Z,18.50
2022-12-15T06:43:30.129Z,20.97
2022-12-15T06:45:57.605Z,16.20
2022-12-15T06:48:25.110Z,14.10
2022-12-15T06:50:52.552Z,17.60
2022-12-15T06:53:21.378Z,15.87
2022-12-15T06:55:48.930Z,16.53
2022-12-15T06:58:15.957Z,14.53
2022-12-15T07:00:44.324Z,14.00
2022-12-15T07:03:16.159Z,16.90
2022-12-15T07:05:44.092Z,15.50
2022-12-15T07:08:12.286Z,15.47
2022-12-15T07:10:44.211Z,15.07
2022-12-15T07:13:14.087Z,16.33
2022-12-15T07:15:41.729Z,14.67
2022-12-15T07:18:10.451Z,15.90
2022-12-15T07:20:37.100Z,15.33
2022-12-15T07:23:07.970Z,14.67
2022-12-15T07:25:36.913Z,14.97
2022-12-15T07:28:04.078Z,14.80
2022-12-15T07:30:36.746Z,14.00
2022-12-15T07:33:05.838Z,13.47
2022-12-15T07:35:32.850Z,14.60
2022-12-15T07:38:00.470Z,15.17
2022-12-15T07:40:27.281Z,15.30
2022-12-15T07:42:54.021Z,15.63
2022-12-15T07:45:21.851Z,14.40
2022-12-15T07:47:50.238Z,14.73
2022-12-15T07:50:18.727Z,14.37
2022-12-15T07:52:50.435Z,15.10
2022-12-15T07:55:17.141Z,16.10
2022-12-15T07:57:43.798Z,15.33
2022-12-15T08:00:10.884Z,16.10
2022-12-15T08:02:37.785Z,14.40
2022-12-15T08:05:04.876Z,13.80
2022-12-15T08:07:31.515Z,14.07
2022-12-15T08:09:58.126Z,14.77
2022-12-15T08:12:24.806Z,14.30
2022-12-15T08:14:51.543Z,14.37
2022-12-15T08:17:18.206Z,15.20
2022-12-15T08:19:44.924Z,15.20
2022-12-15T08:22:15.543Z,15.60
2022-12-15T08:24:42.248Z,14.50
2022-12-15T08:27:08.927Z,16.13
2022-12-15T08:29:52.175Z,14.47
2022-12-15T08:32:19.332Z,15.20
2022-12-15T08:34:47.729Z,14.87
2022-12-15T08:37:14.391Z,14.40
2022-12-15T08:39:41.036Z,15.60
2022-12-15T08:42:07.688Z,16.57
2022-12-15T08:44:34.711Z,16.57
2022-12-15T08:47:01.462Z,15.27
2022-12-15T08:49:28.113Z,17.70
2022-12-15T08:51:54.815Z,17.40
2022-12-15T08:54:21.621Z,18.27
2022-12-15T08:56:48.503Z,17.03
2022-12-15T08:59:15.919Z,20.20
2022-12-15T09:01:43.455Z,19.30
2022-12-15T09:04:10.501Z,18.97
2022-12-15T09:06:37.294Z,19.27
2022-12-15T09:09:07.421Z,18.80
2022-12-15T09:11:34.918Z,18.47
2022-12-15T09:14:01.879Z,18.33
2022-12-15T09:16:28.778Z,19.10
2022-12-15T09:18:58.074Z,19.10
2022-12-15T09:21:27.253Z,21.07
2022-12-15T09:23:56.280Z,24.60
2022-12-15T09:26:23.749Z,21.80
2022-12-15T09:28:51.384Z,20.57
2022-12-15T09:31:22.017Z,20.10
2022-12-15T09:33:51.044Z,16.97
2022-12-15T09:36:17.827Z,18.50
2022-12-15T09:38:44.810Z,16.83
2022-12-15T09:41:14.963Z,18.53
2022-12-15T09:43:54.363Z,20.50
2022-12-15T09:46:28.291Z,18.70
2022-12-15T09:48:58.165Z,18.47
2022-12-15T09:51:34.197Z,19.60
2022-12-15T09:54:01.499Z,19.17
2022-12-15T09:56:42.489Z,20.33
2022-12-15T09:59:41.675Z,21.03
2022-12-15T10:02:46.163Z,24.83
2022-12-15T10:05:38.161Z,24.73
2022-12-15T10:08:14.106Z,22.57
2022-12-15T10:10:56.189Z,28.60
2022-12-15T10:13:37.673Z,32.73
2022-12-15T10:16:13.924Z,36.23
2022-12-15T10:19:08.717Z,36.67
2022-12-15T10:21:36.434Z,28.33
2022-12-15T10:24:37.464Z,27.00
2022-12-15T10:27:27.200Z,27.50
2022-12-15T10:30:07.984Z,24.43
2022-12-15T10:33:11.644Z,24.73
2022-12-15T10:35:39.916Z,24.40
2022-12-15T10:38:23.452Z,26.00
2022-12-15T10:40:59.757Z,25.40
2022-12-15T10:43:32.816Z,23.10
2022-12-15T10:46:19.905Z,25.70
2022-12-15T10:48:49.861Z,24.37
2022-12-15T10:51:27.584Z,23.93
2022-12-15T10:54:04.532Z,21.23
2022-12-15T10:56:34.244Z,22.00
2022-12-15T10:59:22.209Z,21.17
2022-12-15T11:01:49.137Z,20.23
2022-12-15T11:04:32.447Z,19.53
2022-12-15T11:07:01.884Z,21.37
2022-12-15T11:09:37.999Z,19.90
2022-12-15T11:12:41.436Z,18.97
2022-12-15T11:15:38.205Z,18.67
2022-12-15T11:18:08.663Z,19.67
2022-12-15T11:20:40.152Z,20.43
2022-12-15T11:23:17.767Z,17.80
2022-12-15T11:25:51.480Z,19.20
2022-12-15T11:28:26.676Z,17.87
2022-12-15T11:31:26.434Z,18.90
2022-12-15T11:33:54.889Z,18.63
2022-12-15T11:36:46.709Z,18.53
2022-12-15T11:39:45.285Z,19.07
2022-12-15T11:42:54.395Z,17.70
2022-12-15T11:45:50.277Z,16.97
2022-12-15T11:48:23.516Z,19.10
2022-12-15T11:51:17.606Z,18.57
2022-12-15T11:54:09.015Z,19.50
2022-12-15T11:56:45.497Z,16.73
2022-12-15T11:59:22.299Z,16.60
2022-12-15T12:02:13.806Z,18.27
2022-12-15T12:05:07.908Z,17.40
2022-12-15T12:08:05.609Z,17.73
2022-12-15T12:10:58.916Z,17.00
2022-12-15T12:13:52.039Z,16.40
2022-12-15T12:16:50.828Z,15.53
2022-12-15T12:19:27.457Z,17.60
2022-12-15T12:22:02.496Z,16.57
2022-12-15T12:24:48.909Z,17.20
2022-12-15T12:27:39.500Z,17.93
2022-12-15T12:30:13.148Z,19.07
2022-12-15T12:32:54.443Z,14.47
2022-12-15T12:35:55.275Z,13.87
2022-12-15T12:38:29.897Z,14.80
2022-12-15T12:41:11.562Z,19.97
2022-12-15T12:43:43.140Z,18.37
2022-12-15T12:46:33.253Z,19.13
2022-12-15T12:49:22.894Z,18.63
2022-12-15T12:51:55.211Z,18.57
2022-12-15T12:54:37.182Z,18.60
2022-12-15T12:57:13.098Z,18.37
2022-12-15T12:59:48.934Z,17.40
2022-12-15T13:02:21.787Z,19.27
2022-12-15T13:05:06.125Z,20.10
2022-12-15T13:07:35.293Z,18.87
2022-12-15T13:10:25.070Z,19.37
2022-12-15T13:12:54.343Z,19.50
2022-12-15T13:15:27.320Z,20.37
2022-12-15T13:18:06.509Z,21.70
2022-12-15T13:20:36.722Z,18.87
2022-12-15T13:23:21.462Z,21.80
2022-12-15T13:25:57.019Z,21.77
2022-12-15T13:28:39.392Z,21.57
2022-12-15T13:31:21.596Z,21.10
2022-12-15T13:33:51.535Z,19.83
2022-12-15T13:36:36.987Z,20.87
2022-12-15T13:39:04.925Z,20.33
2022-12-15T13:41:33.198Z,20.83
2022-12-15T13:44:01.135Z,20.57
2022-12-15T13:46:31.825Z,19.70
2022-12-15T13:49:35.932Z,20.67
2022-12-15T13:52:12.210Z,18.97
2022-12-15T13:54:49.209Z,21.33
2022-12-15T13:57:20.002Z,21.47
2022-12-15T14:00:01.635Z,21.07
2022-12-15T14:02:31.517Z,21.37
2022-12-15T14:05:21.129Z,21.47
2022-12-15T14:07:54.345Z,21.63
2022-12-15T14:10:34.893Z,20.60
2022-12-15T14:13:15.847Z,21.63
2022-12-15T14:15:46.896Z,21.00
2022-12-15T14:18:25.436Z,21.13
2022-12-15T14:20:53.018Z,18.57
2022-12-15T14:23:25.312Z,19.47
2022-12-15T14:26:03.598Z,21.37
2022-12-15T14:28:33.493Z,20.20
2022-12-15T14:31:07.131Z,18.80
2022-12-15T14:33:37.247Z,18.70
2022-12-15T14:36:10.587Z,17.80
2022-12-15T14:38:45.075Z,19.57
2022-12-15T14:41:21.531Z,20.00
2022-12-15T14:44:31.560Z,19.70
2022-12-15T14:46:36.747Z,20.17
2022-12-15T14:49:08.948Z,19.60
2022-12-15T14:51:46.212Z,22.60
2022-12-15T14:54:38.436Z,20.90
2022-12-15T14:57:20.255Z,19.07
2022-12-15T14:59:54.504Z,20.63
2022-12-15T15:02:24.964Z,18.57
2022-12-15T15:05:04.633Z,20.07
2022-12-15T15:07:37.515Z,19.27
2022-12-15T15:10:22.305Z,18.30
2022-12-15T15:12:49.513Z,18.80
2022-12-15T15:15:21.483Z,20.13
2022-12-15T15:17:48.107Z,19.30
2022-12-15T15:20:30.191Z,18.97
2022-12-15T15:23:10.728Z,21.40
2022-12-15T15:25:40.686Z,19.83
2022-12-15T15:28:23.084Z,19.67
2022-12-15T15:30:59.288Z,20.13
2022-12-15T15:33:26.918Z,19.60
2022-12-15T15:35:59.303Z,20.47
2022-12-15T15:38:32.206Z,19.87
2022-12-15T15:41:20.992Z,20.93
2022-12-15T15:43:48.474Z,21.50
2022-12-15T15:46:18.394Z,21.03
2022-12-15T15:48:47.675Z,22.67
2022-12-15T15:51:14.603Z,22.07
2022-12-15T15:53:41.377Z,21.97
2022-12-15T15:56:12.022Z,21.43
2022-12-15T15:58:38.843Z,20.13
2022-12-15T16:01:11.131Z,20.17
2022-12-15T16:03:40.187Z,21.17
2022-12-15T16:06:19.755Z,21.97
2022-12-15T16:08:49.880Z,28.10
2022-12-15T16:11:16.783Z,28.07
2022-12-15T16:13:44.429Z,27.30
2022-12-15T16:16:20.590Z,23.50
2022-12-15T16:18:47.669Z,21.43
2022-12-15T16:21:15.846Z,26.13
2022-12-15T16:23:44.670Z,22.00
2022-12-15T16:26:16.406Z,22.70
2022-12-15T16:28:43.337Z,22.57
2022-12-15T16:31:15.970Z,22.23
2022-12-15T16:33:42.639Z,23.33
2022-12-15T16:36:13.148Z,23.53
2022-12-15T16:38:40.764Z,22.67
2022-12-15T16:41:12.260Z,22.80
2022-12-15T16:43:42.950Z,22.70
2022-12-15T16:46:15.398Z,20.40
2022-12-15T16:48:43.402Z,23.03
2022-12-15T16:51:26.427Z,22.53
2022-12-15T16:53:53.346Z,23.53
2022-12-15T16:56:20.279Z,27.70
2022-12-15T16:58:49.010Z,21.83
2022-12-15T17:01:19.745Z,20.80
2022-12-15T17:03:47.167Z,23.23
2022-12-15T17:06:17.635Z,22.30
2022-12-15T17:08:51.406Z,24.33
2022-12-15T17:11:26.874Z,22.80
2022-12-15T17:13:56.674Z,22.10
2022-12-15T17:16:25.202Z,20.90
2022-12-15T17:18:52.336Z,22.47
2022-12-15T17:21:41.302Z,23.03
2022-12-15T17:24:13.879Z,23.60
2022-12-15T17:26:42.106Z,23.70
2022-12-15T17:29:17.439Z,21.30
2022-12-15T17:31:44.203Z,21.43
2022-12-15T17:34:33.769Z,22.07
2022-12-15T17:37:04.299Z,21.90
2022-12-15T17:39:32.701Z,21.13
2022-12-15T17:42:01.396Z,22.17
2022-12-15T17:44:34.765Z,22.47
2022-12-15T17:47:02.512Z,22.10
2022-12-15T17:49:35.005Z,21.70
2022-12-15T17:52:07.449Z,21.33
2022-12-15T17:54:34.134Z,23.00
2022-12-15T17:57:00.918Z,22.27
2022-12-15T17:59:27.684Z,23.07
2022-12-15T18:01:57.020Z,23.33
2022-12-15T18:04:24.146Z,24.07
2022-12-15T18:06:51.552Z,29.10
2022-12-15T18:09:22.475Z,32.10
2022-12-15T18:11:49.368Z,27.73
2022-12-15T18:14:19.268Z,25.67
2022-12-15T18:16:46.567Z,23.37
2022-12-15T18:19:13.801Z,25.10
2022-12-15T18:21:41.052Z,24.23
2022-12-15T18:24:21.423Z,23.03
2022-12-15T18:26:48.817Z,24.90
2022-12-15T18:29:20.170Z,25.17
2022-12-15T18:31:48.313Z,26.53
2022-12-15T18:34:21.019Z,27.10
2022-12-15T18:36:48.005Z,26.23
2022-12-15T18:39:20.140Z,25.30
2022-12-15T18:41:48.152Z,26.20
2022-12-15T18:44:24.608Z,27.37
2022-12-15T18:46:51.450Z,25.20
2022-12-15T18:49:19.346Z,25.50
2022-12-15T18:51:47.170Z,24.43
2022-12-15T18:54:19.875Z,24.50
2022-12-15T18:56:46.618Z,25.20
2022-12-15T18:59:18.110Z,24.97
2022-12-15T19:01:47.781Z,22.50
2022-12-15T19:04:15.469Z,25.13
2022-12-15T19:06:42.951Z,23.30
2022-12-15T19:09:12.594Z,22.33
2022-12-15T19:11:39.451Z,23.27
2022-12-15T19:14:32.964Z,23.40
2022-12-15T19:17:18.363Z,22.47
2022-12-15T19:20:08.463Z,22.67
2022-12-15T19:22:35.952Z,23.73
2022-12-15T19:25:05.915Z,21.53
2022-12-15T19:27:32.565Z,24.07
2022-12-15T19:29:59.532Z,23.73
2022-12-15T19:32:26.847Z,23.93
2022-12-15T19:34:54.525Z,26.80
2022-12-15T19:37:30.558Z,26.17
2022-12-15T19:40:01.708Z,29.83
2022-12-15T19:42:37.050Z,34.60
2022-12-15T19:45:15.841Z,27.90
2022-12-15T19:47:42.506Z,29.07
2022-12-15T19:50:14.427Z,27.57
2022-12-15T19:52:42.438Z,24.80
2022-12-15T19:55:15.202Z,22.07
2022-12-15T19:57:41.949Z,18.10
2022-12-15T20:00:15.889Z,17.93
2022-12-15T20:02:42.825Z,16.67
2022-12-15T20:05:09.700Z,14.50
2022-12-15T20:07:36.758Z,15.13
2022-12-15T20:10:05.310Z,15.90
2022-12-15T20:12:32.062Z,16.70
2022-12-15T20:14:58.815Z,16.83
2022-12-15T20:17:25.529Z,17.20
2022-12-15T20:19:52.462Z,18.70
2022-12-15T20:22:22.068Z,16.80
2022-12-15T20:24:48.888Z,17.13
2022-12-15T20:27:18.241Z,17.33
2022-12-15T20:29:45.385Z,15.60
2022-12-15T20:32:17.472Z,15.13
2022-12-15T20:34:44.604Z,14.33
2022-12-15T20:37:29.328Z,13.80
2022-12-15T20:39:57.797Z,12.57
2022-12-15T20:42:25.446Z,13.03
2022-12-15T20:44:52.115Z,12.30
2022-12-15T20:47:26.503Z,12.40
2022-12-15T20:49:54.727Z,11.20
2022-12-15T20:52:24.276Z,12.20
2022-12-15T20:54:52.640Z,11.33
2022-12-15T20:57:19.482Z,13.10
2022-12-15T20:59:46.278Z,11.80
2022-12-15T21:02:21.750Z,13.80
2022-12-15T21:04:50.987Z,12.57
2022-12-15T21:07:17.709Z,13.63
2022-12-15T21:09:44.526Z,12.57
2022-12-15T21:12:17.411Z,13.20
2022-12-15T21:14:44.225Z,12.53
2022-12-15T21:17:19.548Z,14.00
2022-12-15T21:19:46.735Z,12.83
2022-12-15T21:22:26.740Z,12.33
2022-12-15T21:24:55.843Z,11.77
2022-12-15T21:27:22.825Z,11.90
2022-12-15T21:29:52.570Z,12.00
2022-12-15T21:32:20.276Z,14.10
2022-12-15T21:34:46.985Z,11.60
2022-12-15T21:37:31.878Z,11.57
2022-12-15T21:39:59.456Z,11.40
2022-12-15T21:42:26.465Z,13.03
2022-12-15T21:44:53.236Z,12.10
2022-12-15T21:47:52.052Z,11.50
2022-12-15T21:50:19.449Z,12.70
2022-12-15T21:52:47.240Z,12.80
2022-12-15T21:55:18.748Z,12.03
2022-12-15T21:57:45.483Z,13.43
2022-12-15T22:00:14.569Z,11.20
2022-12-15T22:02:41.841Z,12.40
2022-12-15T22:05:23.532Z,12.83
2022-12-15T22:07:50.986Z,11.50
2022-12-15T22:10:18.477Z,12.93
2022-12-15T22:12:53.417Z,13.07
2022-12-15T22:15:26.387Z,12.50
2022-12-15T22:17:53.063Z,11.97
2022-12-15T22:20:23.196Z,14.10
2022-12-15T22:22:50.422Z,13.53
2022-12-15T22:25:22.962Z,12.80
2022-12-15T22:27:50.105Z,13.70
2022-12-15T22:30:21.031Z,14.60
2022-12-15T22:32:47.876Z,13.47
2022-12-15T22:35:19.782Z,13.50
2022-12-15T22:37:47.293Z,13.50
2022-12-15T22:40:14.971Z,13.27
2022-12-15T22:42:49.089Z,13.17
2022-12-15T22:45:18.007Z,13.17
2022-12-15T22:47:47.139Z,12.57
2022-12-15T22:50:25.752Z,13.27
2022-12-15T22:52:52.838Z,14.70
2022-12-15T22:55:22.897Z,14.33
2022-12-15T22:58:02.987Z,12.90
2022-12-15T23:00:29.806Z,12.90
2022-12-15T23:05:29.697Z,12.63
2022-12-15T23:07:56.453Z,12.63
2022-12-15T23:10:42.016Z,11.50
2022-12-15T23:13:08.730Z,13.43
2022-12-15T23:15:54.743Z,13.43
2022-12-15T23:18:21.669Z,11.90
2022-12-15T23:20:48.403Z,11.90
2022-12-15T23:23:15.451Z,12.13
2022-12-15T23:25:42.317Z,12.20
2022-12-15T23:28:09.039Z,12.10
2022-12-15T23:30:35.970Z,12.07
2022-12-15T23:33:02.643Z,10.43
2022-12-15T23:35:29.740Z,9.87
2022-12-15T23:37:58.222Z,11.20
2022-12-15T23:40:24.861Z,10.30
2022-12-15T23:42:52.261Z,11.40
2022-12-15T23:45:19.328Z,10.73
2022-12-15T23:47:46.000Z,9.70
2022-12-15T23:50:12.689Z,10.27
2022-12-15T23:52:39.356Z,10.17
2022-12-15T23:55:09.982Z,10.40
2022-12-15T23:57:40.134Z,10.67
